Time;durP1;ratioP1;P1;durP2;ratioP2;P2;SDS_P1;SDS_P2;PMS_P1;PMS_P2;Temp;Humidity;BMP_temperature;BMP_pressure;BME280_temperature;BME280_humidity;BME280_pressure;Samples;Min_cycle;Max_cycle;Signal;HPM_P1;HPM_P2
2022/10/20 00:01:40;;;;;;;17.77;10.27;;;;;;;;;;5118930;27;20031;-67
2022/10/20 00:04:05;;;;;;;16.83;10.37;;;;;;;;;;5102096;27;20032;-68
2022/10/20 00:06:31;;;;;;;22.87;10.00;;;;;;;;;;5118765;27;20109;-68
2022/10/20 00:08:57;;;;;;;16.08;10.23;;;;;;;;;;5118839;27;20050;-67
2022/10/20 00:11:23;;;;;;;14.40;9.75;;;;;;;;;;5118064;27;20474;-67
2022/10/20 00:13:49;;;;;;;14.77;9.18;;;;;;;;;;5117990;27;20102;-68
2022/10/20 00:16:15;;;;;;;18.52;9.00;;;;;;;;;;5118717;27;20034;-67
2022/10/20 00:18:40;;;;;;;15.43;8.63;;;;;;;;;;5120650;27;20477;-67
2022/10/20 00:21:11;;;;;;;17.98;9.02;;;;;;;;;;5118723;27;20092;-67
2022/10/20 00:23:36;;;;;;;14.75;8.88;;;;;;;;;;5117493;27;20579;-67
2022/10/20 00:26:04;;;;;;;18.37;9.23;;;;;;;;;;5118774;27;20042;-67
2022/10/20 00:28:29;;;;;;;15.05;8.35;;;;;;;;;;5101031;27;20287;-66
2022/10/20 00:30:55;;;;;;;15.00;8.43;;;;;;;;;;5119828;27;20035;-67
2022/10/20 00:33:20;;;;;;;18.67;8.30;;;;;;;;;;5114806;27;20279;-67
2022/10/20 00:35:45;;;;;;;14.57;8.30;;;;;;;;;;5118818;27;20473;-68
2022/10/20 00:38:11;;;;;;;13.07;8.47;;;;;;;;;;5122978;27;20425;-68
2022/10/20 00:40:36;;;;;;;16.45;8.13;;;;;;;;;;5124370;27;20445;-67
2022/10/20 00:43:01;;;;;;;14.77;8.07;;;;;;;;;;5120354;27;20484;-68
2022/10/20 00:45:26;;;;;;;15.83;8.43;;;;;;;;;;5120172;27;20015;-68
2022/10/20 00:47:57;;;;;;;15.98;7.43;;;;;;;;;;5117933;27;20058;-67
2022/10/20 00:50:28;;;;;;;13.98;7.90;;;;;;;;;;5118600;27;20039;-67
2022/10/20 00:52:54;;;;;;;16.88;8.10;;;;;;;;;;5116798;27;20495;-68
2022/10/20 00:55:22;;;;;;;14.55;7.93;;;;;;;;;;5100189;27;20040;-67
2022/10/20 00:57:48;;;;;;;12.45;7.18;;;;;;;;;;5102807;27;20027;-67
2022/10/20 01:00:14;;;;;;;12.55;7.47;;;;;;;;;;5118986;27;20028;-67
2022/10/20 01:02:39;;;;;;;13.07;7.32;;;;;;;;;;5101241;27;20389;-67
2022/10/20 01:05:05;;;;;;;12.55;7.40;;;;;;;;;;5119280;27;20027;-68
2022/10/20 01:07:30;;;;;;;13.90;7.50;;;;;;;;;;5122980;27;20027;-68
2022/10/20 01:09:56;;;;;;;12.20;7.27;;;;;;;;;;5118299;27;20110;-67
2022/10/20 01:12:33;;;;;;;12.18;7.15;;;;;;;;;;5100332;28;20382;-67
2022/10/20 01:15:18;;;;;;;11.02;7.05;;;;;;;;;;5122320;27;20031;-67
2022/10/20 01:17:53;;;;;;;12.98;7.55;;;;;;;;;;5118321;27;20489;-68
2022/10/20 01:20:24;;;;;;;12.73;7.05;;;;;;;;;;5101857;27;20093;-68
2022/10/20 01:22:49;;;;;;;15.25;7.50;;;;;;;;;;5117019;27;20454;-68
2022/10/20 01:25:21;;;;;;;13.57;7.27;;;;;;;;;;5114505;27;20084;-68
2022/10/20 01:27:53;;;;;;;14.45;7.35;;;;;;;;;;5119808;27;20080;-68
2022/10/20 01:30:20;;;;;;;14.38;7.22;;;;;;;;;;5122445;27;20075;-68
2022/10/20 01:32:48;;;;;;;11.82;6.93;;;;;;;;;;5124876;27;20090;-68
2022/10/20 01:35:16;;;;;;;15.02;7.00;;;;;;;;;;5117916;27;20034;-68
2022/10/20 01:37:52;;;;;;;12.35;6.90;;;;;;;;;;5120391;27;20531;-68
2022/10/20 01:40:20;;;;;;;10.98;6.40;;;;;;;;;;5121513;27;20668;-68
2022/10/20 01:42:47;;;;;;;12.85;7.00;;;;;;;;;;5098961;27;20031;-67
2022/10/20 01:45:16;;;;;;;12.93;6.40;;;;;;;7.93;nan;101219.34;5117572;27;20028;-67
2022/10/20 01:47:42;;;;;;;10.27;5.85;;;;;;;;;;5118954;27;20134;-67
2022/10/20 01:50:09;;;;;;;12.65;5.78;;;;;;;;;;5118148;27;20536;-68
2022/10/20 01:52:34;;;;;;;10.63;5.82;;;;;;;;;;5119560;27;20023;-67
2022/10/20 01:54:59;;;;;;;14.77;6.13;;;;;;;;;;5120537;27;20473;-68
2022/10/20 01:57:31;;;;;;;11.00;6.87;;;;;;;;;;5122914;27;20479;-68
2022/10/20 01:59:59;;;;;;;12.35;6.70;;;;;;;;;;5117168;27;20019;-67
2022/10/20 02:02:31;;;;;;;17.08;7.80;;;;;;;;;;5114775;27;20783;-67
2022/10/20 02:04:59;;;;;;;24.98;8.57;;;;;;;;;;5119728;27;20447;-68
2022/10/20 02:07:28;;;;;;;22.48;9.63;;;;;;;;;;5100943;28;20023;-67
2022/10/20 02:09:59;;;;;;;18.60;8.98;;;;;;;;;;5115624;27;20383;-67
2022/10/20 02:12:26;;;;;;;23.48;9.52;;;;;;;;;;5116187;27;20426;-68
2022/10/20 02:14:52;;;;;;;17.05;8.13;;;;;;;;;;5117696;27;20379;-67
2022/10/20 02:17:18;;;;;;;14.07;7.13;;;;;;;;;;5115568;27;20027;-67
2022/10/20 02:19:44;;;;;;;15.75;7.28;;;;;;;;;;5121490;27;20024;-67
2022/10/20 02:22:10;;;;;;;13.88;5.88;;;;;;;;;;5115507;27;20030;-66
2022/10/20 02:24:37;;;;;;;11.10;6.47;;;;;;;;;;5118977;27;20472;-67
2022/10/20 02:27:07;;;;;;;10.32;5.85;;;;;;;;;;5117902;27;20430;-67
2022/10/20 02:29:32;;;;;;;;;;;;;;;;;;5118890;27;20023;-66
2022/10/20 02:31:57;;;;;;;12.27;5.43;;;;;;;;;;5100180;28;20389;-66
2022/10/20 02:34:26;;;;;;;9.43;5.57;;;;;;;;;;5118581;27;20015;-66
2022/10/20 02:36:54;;;;;;;9.75;5.50;;;;;;;;;;5123349;27;20054;-66
2022/10/20 02:39:19;;;;;;;9.13;5.50;;;;;;;;;;5118296;27;20043;-67
2022/10/20 02:41:44;;;;;;;10.03;5.60;;;;;;;;;;5122080;27;20056;-67
2022/10/20 02:44:09;;;;;;;12.37;5.90;;;;;;;;;;5122347;27;20023;-67
2022/10/20 02:46:34;;;;;;;11.47;6.03;;;;;;;;;;5119375;27;20481;-68
2022/10/20 02:49:00;;;;;;;10.33;5.27;;;;;;;;;;5116942;27;20287;-67
2022/10/20 02:51:25;;;;;;;9.30;5.00;;;;;;;;;;5117987;27;20031;-66
2022/10/20 02:53:50;;;;;;;8.03;4.63;;;;;;;;;;5117083;27;20035;-67
2022/10/20 02:56:15;;;;;;;7.17;4.13;;;;;;;;;;5117483;27;20176;-66
2022/10/20 02:58:41;;;;;;;7.47;4.77;;;;;;;;;;5114137;27;20307;-67
2022/10/20 03:01:06;;;;;;;9.50;5.00;;;;;;;;;;5116857;27;20379;-66
2022/10/20 03:03:32;;;;;;;9.60;4.95;;;;;;;;;;5119978;27;20270;-67
2022/10/20 03:05:57;;;;;;;9.77;4.17;;;;;;;;;;5113341;27;20489;-67
2022/10/20 03:08:22;;;;;;;6.53;4.03;;;;;;;;;;5120290;28;20465;-67
2022/10/20 03:10:47;;;;;;;6.93;3.90;;;;;;;;;;5117263;27;20282;-67
2022/10/20 03:13:14;;;;;;;8.77;4.73;;;;;;;;;;5117101;27;20730;-67
2022/10/20 03:15:39;;;;;;;10.60;4.53;;;;;;;;;;5105123;27;20297;-68
2022/10/20 03:18:05;;;;;;;7.28;4.20;;;;;;;;;;5122281;27;20054;-67
2022/10/20 03:20:30;;;;;;;8.73;4.70;;;;;;;;;;5121852;27;20473;-67
2022/10/20 03:22:56;;;;;;;8.43;4.10;;;;;;;;;;5122862;27;20416;-67
2022/10/20 03:25:21;;;;;;;10.83;4.90;;;;;;;;;;5122926;27;20031;-67
2022/10/20 03:27:46;;;;;;;8.67;4.50;;;;;;;;;;5120721;27;20058;-68
2022/10/20 03:30:11;;;;;;;11.77;4.95;;;;;;;;;;5127520;27;20348;-67
2022/10/20 03:32:37;;;;;;;9.50;4.80;;;;;;;7.14;nan;101285.53;5126623;27;20030;-67
2022/10/20 03:35:02;;;;;;;19.20;5.20;;;;;;;;;;5118643;27;20024;-67
2022/10/20 03:37:27;;;;;;;12.05;5.75;;;;;;;;;;5128025;27;20084;-64
2022/10/20 03:39:52;;;;;;;10.30;6.40;;;;;;;;;;5120406;27;20027;-68
2022/10/20 03:42:18;;;;;;;10.70;5.10;;;;;;;;;;5117349;27;20932;-68
2022/10/20 03:44:44;;;;;;;9.30;5.20;;;;;;;;;;5121708;27;20027;-67
2022/10/20 03:47:09;;;;;;;9.20;4.57;;;;;;;;;;5105289;27;20039;-66
2022/10/20 03:49:34;;;;;;;12.98;4.95;;;;;;;;;;5122834;27;20031;-66
2022/10/20 03:52:00;;;;;;;10.77;4.87;;;;;;;;;;5121713;27;20055;-66
2022/10/20 03:54:25;;;;;;;11.83;5.10;;;;;;;;;;5109616;27;20031;-66
2022/10/20 03:56:50;;;;;;;8.65;4.63;;;;;;;;;;5116139;27;20280;-66
2022/10/20 03:59:15;;;;;;;8.60;4.97;;;;;;;;;;5118760;27;20045;-67
2022/10/20 04:01:42;;;;;;;8.20;4.10;;;;;;;;;;5117275;27;20031;-66
2022/10/20 04:04:07;;;;;;;9.27;4.43;;;;;;;;;;5118966;27;20047;-66
2022/10/20 04:06:33;;;;;;;11.70;5.23;;;;;;;;;;5114458;27;20027;-67
2022/10/20 04:08:58;;;;;;;7.30;4.63;;;;;;;;;;5125902;27;20358;-69
2022/10/20 04:11:25;;;;;;;8.20;4.70;;;;;;;;;;5120835;27;20556;-69
2022/10/20 04:13:50;;;;;;;6.20;4.43;;;;;;;;;;5117268;27;20121;-68
2022/10/20 04:16:16;;;;;;;8.17;4.40;;;;;;;;;;5101490;27;20141;-69
2022/10/20 04:18:41;;;;;;;7.10;4.60;;;;;;;;;;5119662;27;20095;-68
2022/10/20 04:21:06;;;;;;;10.13;4.47;;;;;;;;;;5120125;27;20047;-70
2022/10/20 04:23:31;;;;;;;7.03;4.63;;;;;;;;;;5116405;27;20059;-69
2022/10/20 04:25:57;;;;;;;8.40;4.35;;;;;;;;;;5120480;27;20047;-69
2022/10/20 04:28:22;;;;;;;7.80;4.53;;;;;;;;;;5122752;27;20019;-70
2022/10/20 04:30:48;;;;;;;8.87;4.63;;;;;;;;;;5108736;27;20022;-67
2022/10/20 04:33:13;;;;;;;7.68;4.90;;;;;;;;;;5122413;27;20697;-70
2022/10/20 04:35:38;;;;;;;7.70;4.45;;;;;;;;;;5114387;27;20114;-70
2022/10/20 04:38:03;;;;;;;9.50;5.05;;;;;;;;;;5124779;27;20613;-69
2022/10/20 04:40:29;;;;;;;8.43;4.90;;;;;;;;;;5101113;27;20473;-70
2022/10/20 04:42:54;;;;;;;10.13;4.77;;;;;;;;;;5119810;27;20311;-70
2022/10/20 04:45:19;;;;;;;12.07;5.07;;;;;;;;;;5121185;27;20088;-69
2022/10/20 04:47:44;;;;;;;9.97;5.47;;;;;;;;;;5118298;27;20035;-67
2022/10/20 04:50:09;;;;;;;12.30;5.27;;;;;;;;;;5119151;27;20034;-69
2022/10/20 04:52:35;;;;;;;16.17;5.20;;;;;;;;;;5116893;27;20027;-68
2022/10/20 04:55:00;;;;;;;10.67;4.80;;;;;;;;;;5125768;27;20034;-68
2022/10/20 04:57:25;;;;;;;8.10;4.60;;;;;;;;;;5121435;27;20109;-70
2022/10/20 04:59:51;;;;;;;9.98;4.80;;;;;;;;;;5115839;27;20283;-68
2022/10/20 05:02:16;;;;;;;6.53;4.07;;;;;;;;;;5115366;27;20498;-70
2022/10/20 05:04:42;;;;;;;8.60;4.57;;;;;;;;;;5119606;27;20286;-69
2022/10/20 05:07:07;;;;;;;11.10;4.85;;;;;;;;;;5126175;27;20034;-69
2022/10/20 05:09:33;;;;;;;7.60;4.37;;;;;;;;;;5119974;27;20031;-69
2022/10/20 05:11:58;;;;;;;9.35;4.68;;;;;;;;;;5101914;27;20023;-70
2022/10/20 05:14:23;;;;;;;7.00;4.47;;;;;;;;;;5117363;27;20026;-71
2022/10/20 05:16:49;;;;;;;7.30;4.53;;;;;;;;;;5119138;27;20751;-70
2022/10/20 05:19:14;;;;;;;8.87;5.13;;;;;;;;;;5100123;28;20481;-70
2022/10/20 05:21:39;;;;;;;9.13;4.33;;;;;;;;;;5095686;27;20089;-70
2022/10/20 05:24:05;;;;;;;7.68;4.45;;;;;;;;;;5104149;27;20436;-69
2022/10/20 05:26:33;;;;;;;9.98;4.80;;;;;;;;;;5115276;27;20024;-70
2022/10/20 05:28:59;;;;;;;10.32;4.68;;;;;;;;;;5117691;27;20507;-70
2022/10/20 05:31:24;;;;;;;8.95;4.57;;;;;;;;;;5120926;27;20027;-70
2022/10/20 05:33:50;;;;;;;8.30;4.90;;;;;;;;;;5118021;27;20423;-70
2022/10/20 05:36:18;;;;;;;14.07;4.97;;;;;;;;;;5106953;27;20054;-70
2022/10/20 05:38:43;;;;;;;13.52;5.18;;;;;;;;;;5102788;27;20030;-70
2022/10/20 05:41:10;;;;;;;11.73;5.10;;;;;;;;;;5100862;27;20019;-70
2022/10/20 05:43:35;;;;;;;15.27;5.50;;;;;;;;;;5117350;27;20090;-70
2022/10/20 05:46:00;;;;;;;9.47;5.00;;;;;;;;;;5120021;27;20098;-70
2022/10/20 05:48:26;;;;;;;11.13;5.55;;;;;;;;;;5115036;27;20286;-70
2022/10/20 05:50:51;;;;;;;9.80;4.57;;;;;;;;;;5120484;27;20022;-70
2022/10/20 05:53:16;;;;;;;11.47;4.87;;;;;;;;;;5112869;27;20283;-70
2022/10/20 05:55:41;;;;;;;11.60;5.20;;;;;;;;;;5105384;27;20548;-70
2022/10/20 05:58:07;;;;;;;12.03;5.53;;;;;;;;;;5111501;27;20023;-68
2022/10/20 06:00:40;;;;;;;13.93;4.73;;;;;;;;;;5125502;27;20035;-67
2022/10/20 06:03:05;;;;;;;15.77;5.20;;;;;;;;;;5121317;27;20031;-67
2022/10/20 06:05:30;;;;;;;11.97;4.97;;;;;;;;;;5121092;27;20032;-67
2022/10/20 06:07:55;;;;;;;8.83;4.30;;;;;;;;;;5098019;27;20318;-67
2022/10/20 06:10:21;;;;;;;9.50;4.63;;;;;;;;;;5125188;27;20136;-67
2022/10/20 06:12:46;;;;;;;14.10;5.30;;;;;;;;;;5118431;27;20429;-68
2022/10/20 06:15:11;;;;;;;11.57;5.03;;;;;;;;;;5122173;27;20045;-67
2022/10/20 06:17:36;;;;;;;11.70;4.60;;;;;;;;;;5118364;27;20369;-67
2022/10/20 06:20:02;;;;;;;14.03;4.87;;;;;;;;;;5099795;27;20473;-67
2022/10/20 06:22:27;;;;;;;9.85;4.05;;;;;;;;;;5116392;27;20428;-67
2022/10/20 06:24:52;;;;;;;9.27;4.27;;;;;;;;;;5090162;27;20488;-67
2022/10/20 06:27:17;;;;;;;11.33;4.50;;;;;;;;;;5103510;27;20035;-67
2022/10/20 06:29:43;;;;;;;9.10;4.53;;;;;;;;;;5114915;27;20041;-67
2022/10/20 06:32:08;;;;;;;6.90;4.37;;;;;;;;;;5117069;27;20051;-67
2022/10/20 06:34:33;;;;;;;14.47;4.83;;;;;;;;;;5119982;27;20023;-67
2022/10/20 06:36:59;;;;;;;8.83;4.93;;;;;;;;;;5119390;27;20053;-67
2022/10/20 06:39:24;;;;;;;9.95;4.45;;;;;;;;;;5115610;27;20032;-67
2022/10/20 06:41:51;;;;;;;10.27;4.57;;;;;;;;;;5117147;27;20053;-66
2022/10/20 06:44:17;;;;;;;10.43;4.80;;;;;;;;;;5115450;27;20279;-67
2022/10/20 06:46:42;;;;;;;10.73;4.03;;;;;;;;;;5117261;28;20350;-67
2022/10/20 06:49:08;;;;;;;9.25;4.28;;;;;;;;;;5113297;27;20023;-66
2022/10/20 06:51:34;;;;;;;8.77;4.53;;;;;;;;;;5116148;27;20411;-67
2022/10/20 06:53:59;;;;;;;11.15;4.57;;;;;;;;;;5119436;27;20397;-68
2022/10/20 06:56:27;;;;;;;7.10;4.20;;;;;;;;;;5116685;27;20580;-67
2022/10/20 06:58:53;;;;;;;6.75;3.38;;;;;;;;;;5121187;27;20134;-67
2022/10/20 07:01:22;;;;;;;6.25;4.05;;;;;;;;;;5120563;27;20412;-67
2022/10/20 07:03:47;;;;;;;7.67;3.40;;;;;;;;;;5117058;27;20031;-67
2022/10/20 07:06:14;;;;;;;6.47;3.35;;;;;;;;;;5112690;27;20172;-67
2022/10/20 07:08:39;;;;;;;10.68;3.05;;;;;;;;;;5118248;27;20058;-72
2022/10/20 07:11:08;;;;;;;7.07;2.83;;;;;;;;;;5116883;28;20062;-72
2022/10/20 07:13:34;;;;;;;4.72;2.90;;;;;;;;;;5124901;28;20271;-69
2022/10/20 07:15:59;;;;;;;9.35;2.75;;;;;;;;;;5099406;28;20080;-70
2022/10/20 07:18:25;;;;;;;8.32;3.00;;;;;;;;;;5106350;28;20564;-71
2022/10/20 07:20:51;;;;;;;10.82;2.67;;;;;;;;;;5099026;28;20038;-72
2022/10/20 07:23:16;;;;;;;4.20;2.83;;;;;;;;;;5093985;28;20404;-72
2022/10/20 07:25:41;;;;;;;5.57;2.77;;;;;;;;;;5118612;28;20023;-71
2022/10/20 07:28:07;;;;;;;4.63;2.60;;;;;;;;;;5078581;28;20379;-71
2022/10/20 07:30:36;;;;;;;5.03;2.85;;;;;;;;;;5119103;28;20468;-70
2022/10/20 07:33:01;;;;;;;5.70;2.40;;;;;;;;;;5097482;28;20024;-71
2022/10/20 07:35:28;;;;;;;8.23;2.53;;;;;;;;;;5116813;28;20027;-71
2022/10/20 07:37:53;;;;;;;6.20;3.05;;;;;;;;;;5114399;28;20027;-68
2022/10/20 07:40:19;;;;;;;6.73;2.90;;;;;;;;;;5118420;28;20034;-69
2022/10/20 07:42:45;;;;;;;19.30;8.10;;;;;;;;;;5120928;27;20033;-71
2022/10/20 07:45:10;;;;;;;15.47;6.70;;;;;;;;;;5093836;28;20537;-68
2022/10/20 07:47:35;;;;;;;13.80;5.67;;;;;;;;;;5098855;28;20431;-69
2022/10/20 07:50:00;;;;;;;7.47;3.93;;;;;;;;;;5111678;28;20376;-68
2022/10/20 07:52:26;;;;;;;12.93;4.13;;;;;;;;;;5118493;28;20282;-68
2022/10/20 07:54:51;;;;;;;14.30;6.50;;;;;;;;;;5116990;28;20276;-68
2022/10/20 07:57:16;;;;;;;11.17;3.83;;;;;;;;;;5120619;28;20031;-68
2022/10/20 07:59:41;;;;;;;5.37;2.90;;;;;;;;;;5113241;27;20496;-68
2022/10/20 08:02:08;;;;;;;5.22;1.98;;;;;;;;;;5121238;27;20268;-68
2022/10/20 08:04:34;;;;;;;12.52;2.17;;;;;;;;;;5120119;27;20011;-71
2022/10/20 08:06:59;;;;;;;4.23;2.03;;;;;;;;;;5105357;27;20031;-68
2022/10/20 08:09:24;;;;;;;5.10;2.20;;;;;;;;;;5116584;27;20275;-72
2022/10/20 08:11:50;;;;;;;5.33;2.03;;;;;;;;;;5103211;27;20362;-71
2022/10/20 08:14:15;;;;;;;5.15;1.90;;;;;;;;;;5105325;28;20271;-72
2022/10/20 08:16:41;;;;;;;3.45;1.80;;;;;;;;;;5101790;28;20019;-71
2022/10/20 08:19:06;;;;;;;5.20;1.90;;;;;;;;;;5113942;27;20017;-69
2022/10/20 08:21:31;;;;;;;6.63;2.10;;;;;;;;;;5122139;27;20752;-70
2022/10/20 08:23:57;;;;;;;6.07;1.97;;;;;;;;;;5120648;27;20046;-70
2022/10/20 08:26:24;;;;;;;8.30;2.00;;;;;;;;;;5120916;27;20492;-70
2022/10/20 08:28:49;;;;;;;6.90;2.45;;;;;;;;;;5121258;27;20022;-70
2022/10/20 08:31:15;;;;;;;4.95;2.13;;;;;;;;;;5100420;28;20110;-71
2022/10/20 08:33:40;;;;;;;7.07;2.08;;;;;;;;;;5116018;27;20376;-69
2022/10/20 08:36:09;;;;;;;3.43;1.93;;;;;;;;;;5119238;27;20055;-69
2022/10/20 08:38:35;;;;;;;7.22;3.83;;;;;;;;;;5119929;27;20477;-71
2022/10/20 08:41:00;;;;;;;9.48;5.20;;;;;;;;;;5116609;27;20039;-70
2022/10/20 08:43:27;;;;;;;3.97;1.85;;;;;;;;;;5116519;27;20030;-73
2022/10/20 08:45:52;;;;;;;4.72;2.55;;;;;;;;;;5108005;27;20115;-71
2022/10/20 08:48:19;;;;;;;2.60;1.50;;;;;;;;;;5119461;27;20110;-71
2022/10/20 08:50:46;;;;;;;3.28;1.65;;;;;;;;;;5107359;27;20548;-69
2022/10/20 08:53:11;;;;;;;4.25;1.90;;;;;;;;;;5099604;27;20019;-68
2022/10/20 08:55:37;;;;;;;5.97;1.80;;;;;;;;;;5118974;27;20465;-69
2022/10/20 08:58:10;;;;;;;4.93;1.70;;;;;;;;;;5119584;27;20019;-68
2022/10/20 09:00:36;;;;;;;2.45;1.25;;;;;;;;;;5114452;27;20027;-68
2022/10/20 09:03:10;;;;;;;8.50;1.75;;;;;;;;;;5116565;27;20027;-69
2022/10/20 09:05:35;;;;;;;2.75;1.45;;;;;;;;;;5114520;27;20111;-69
2022/10/20 09:08:01;;;;;;;9.23;2.10;;;;;;;;;;5116810;27;20103;-69
2022/10/20 09:10:29;;;;;;;15.27;2.80;;;;;;;;;;5115581;27;20031;-70
2022/10/20 09:12:54;;;;;;;4.82;2.35;;;;;;;;;;5119435;27;20019;-70
2022/10/20 09:15:20;;;;;;;5.88;1.83;;;;;;;;;;5118963;27;20091;-69
2022/10/20 09:17:50;;;;;;;6.88;1.95;;;;;;;;;;5117808;27;20023;-68
2022/10/20 09:20:34;;;;;;;7.78;2.35;;;;;;;;;;5119348;27;20031;-70
2022/10/20 09:23:00;;;;;;;4.20;1.95;;;;;;;;;;5121651;27;20047;-69
2022/10/20 09:25:26;;;;;;;14.02;1.90;;;;;;;;;;5117288;27;20493;-68
2022/10/20 09:27:52;;;;;;;3.30;1.75;;;;;;;;;;5122281;27;20425;-69
2022/10/20 09:30:21;;;;;;;2.80;1.60;;;;;;;13.40;nan;101599.41;5124566;27;20076;-68
2022/10/20 09:32:47;;;;;;;7.33;1.50;;;;;;;;;;5120761;27;20582;-71
2022/10/20 09:35:22;;;;;;;3.08;1.20;;;;;;;13.51;nan;101596.06;5103153;27;20330;-71
2022/10/20 09:37:54;;;;;;;1.88;1.20;;;;;;;;;;5101551;27;20043;-68
2022/10/20 09:40:19;;;;;;;2.63;1.48;;;;;;;;;;5119623;27;20076;-68
2022/10/20 09:42:49;;;;;;;4.00;1.75;;;;;;;;;;5103373;27;20031;-68
2022/10/20 09:45:14;;;;;;;3.05;1.67;;;;;;;;;;5115292;27;20386;-68
2022/10/20 09:47:41;;;;;;;2.93;1.70;;;;;;;;;;5113253;27;20016;-68
2022/10/20 09:50:07;;;;;;;1.65;1.30;;;;;;;;;;5115411;27;20080;-68
2022/10/20 09:52:43;;;;;;;1.98;1.30;;;;;;;;;;5118395;27;20027;-70
2022/10/20 09:55:27;;;;;;;3.30;1.33;;;;;;;;;;5103071;27;20039;-71
2022/10/20 09:57:53;;;;;;;1.50;1.15;;;;;;;;;;5099499;28;20499;-70
2022/10/20 10:00:26;;;;;;;3.63;1.30;;;;;;;;;;5100109;27;20066;-70
2022/10/20 10:03:10;;;;;;;4.15;1.45;;;;;;;;;;5117614;27;20050;-68
2022/10/20 10:05:35;;;;;;;2.35;1.38;;;;;;;;;;5105805;28;20066;-70
2022/10/20 10:08:01;;;;;;;3.08;1.40;;;;;;;;;;5115178;27;20043;-68
2022/10/20 10:10:27;;;;;;;5.65;1.80;;;;;;;;;;5116692;27;20027;-69
2022/10/20 10:12:54;;;;;;;6.93;1.70;;;;;;;;;;5104076;27;20028;-70
2022/10/20 10:15:22;;;;;;;2.17;1.60;;;;;;;;;;5085696;28;20023;-67
2022/10/20 10:17:48;;;;;;;7.25;1.60;;;;;;;;;;5117445;27;20016;-70
2022/10/20 10:20:15;;;;;;;2.95;1.52;;;;;;;;;;5123428;27;20042;-69
2022/10/20 10:22:40;;;;;;;4.75;1.92;;;;;;;;;;5102622;28;20058;-69
2022/10/20 10:25:06;;;;;;;2.15;1.50;;;;;;;;;;5116500;27;20023;-70
2022/10/20 10:27:33;;;;;;;5.60;2.80;;;;;;;;;;5118128;27;20065;-70
2022/10/20 10:30:17;;;;;;;5.65;1.70;;;;;;;;;;5122090;27;20027;-70
2022/10/20 10:32:43;;;;;;;2.35;1.30;;;;;;;;;;5120055;27;20450;-70
2022/10/20 10:35:11;;;;;;;2.88;1.45;;;;;;;;;;5100004;28;20134;-71
2022/10/20 10:37:37;;;;;;;3.25;1.30;;;;;;;;;;5109682;27;20022;-71
2022/10/20 10:40:12;;;;;;;7.35;1.63;;;;;;;;;;5118081;27;20079;-71
2022/10/20 10:42:49;;;;;;;2.58;1.63;;;;;;;;;;5103067;28;20489;-71
2022/10/20 10:45:23;;;;;;;4.20;1.35;;;;;;;;;;5103238;28;20023;-68
2022/10/20 10:48:09;;;;;;;5.55;1.35;;;;;;;;;;5101506;28;20030;-68
2022/10/20 10:50:50;;;;;;;3.65;1.10;;;;;;;;;;5116816;28;20054;-68
2022/10/20 10:53:18;;;;;;;4.93;1.23;;;;;;;;;;5123316;28;20023;-68
2022/10/20 10:55:56;;;;;;;2.67;1.30;;;;;;;;;;5095516;27;20477;-68
2022/10/20 10:58:57;;;;;;;5.15;1.40;;;;;;;;;;5122959;27;20388;-68
2022/10/20 11:01:31;;;;;;;2.25;1.00;;;;;;;;;;5050732;28;20117;-68
2022/10/20 11:04:05;;;;;;;4.10;1.88;;;;;;;;;;5063119;28;20086;-68
2022/10/20 11:06:37;;;;;;;7.20;3.50;;;;;;;;;;5065208;28;20035;-68
2022/10/20 11:09:07;;;;;;;7.47;2.17;;;;;;;;;;5066979;28;20044;-68
2022/10/20 11:11:51;;;;;;;8.90;3.30;;;;;;;;;;5067156;28;20032;-68
2022/10/20 11:14:23;;;;;;;2.95;1.40;;;;;;;;;;5063826;28;20906;-67
2022/10/20 11:17:06;;;;;;;6.53;2.50;;;;;;;;;;5039327;28;20036;-68
2022/10/20 11:19:35;;;;;;;7.18;3.22;;;;;;;;;;5064783;28;20025;-67
2022/10/20 11:22:03;;;;;;;6.40;2.05;;;;;;;;;;5049282;28;20079;-68
2022/10/20 11:24:46;;;;;;;6.25;1.80;;;;;;;;;;5065952;28;20735;-68
2022/10/20 11:27:14;;;;;;;9.98;3.00;;;;;;;;;;5065770;28;20024;-66
2022/10/20 11:29:40;;;;;;;4.93;1.90;;;;;;;;;;5063701;28;20032;-71
2022/10/20 11:32:37;;;;;;;7.00;1.90;;;;;;;;;;5047888;28;20108;-68
2022/10/20 11:35:21;;;;;;;3.15;2.00;;;;;;;;;;5025567;28;20433;-69
2022/10/20 11:37:53;;;;;;;3.47;1.80;;;;;;;;;;5054220;28;20051;-68
2022/10/20 11:40:21;;;;;;;3.88;1.60;;;;;;;;;;5046684;28;20032;-69
2022/10/20 11:42:55;;;;;;;5.78;2.53;;;;;;;;;;5049000;28;20033;-69
2022/10/20 11:45:23;;;;;;;10.35;2.03;;;;;;;;;;5045732;28;20040;-69
2022/10/20 11:47:52;;;;;;;6.50;2.20;;;;;;;;;;5051389;28;20438;-69
2022/10/20 11:50:18;;;;;;;6.13;2.17;;;;;;;;;;5032303;28;20415;-69
2022/10/20 11:52:43;;;;;;;5.95;2.25;;;;;;;;;;5051437;28;20087;-69
2022/10/20 11:55:44;;;;;;;3.50;2.00;;;;;;;;;;5051999;28;20076;-71
2022/10/20 11:58:21;;;;;;;4.32;1.67;;;;;;;;;;4967517;28;20084;-72
2022/10/20 12:00:46;;;;;;;4.28;1.60;;;;;;;;;;4968613;28;20520;-71
2022/10/20 12:03:24;;;;;;;5.17;2.40;;;;;;;;;;4969075;28;20034;-71
2022/10/20 12:05:52;;;;;;;6.05;1.60;;;;;;;;;;4969314;28;20047;-70
2022/10/20 12:08:20;;;;;;;4.93;2.05;;;;;;;;;;4952858;28;20023;-70
2022/10/20 12:11:04;;;;;;;3.30;1.63;;;;;;;;;;5012981;28;20046;-70
2022/10/20 12:13:39;;;;;;;3.17;1.83;;;;;;;;;;5044123;28;20112;-70
2022/10/20 12:16:05;;;;;;;4.43;1.50;;;;;;;;;;5045348;28;20036;-70
2022/10/20 12:18:34;;;;;;;2.03;1.30;;;;;;;;;;5046526;28;20017;-72
2022/10/20 12:21:00;;;;;;;;;;;;;;;;;;5032121;28;20304;-72
2022/10/20 12:23:48;;;;;;;4.80;2.00;;;;;;;;;;5050282;28;20552;-72
2022/10/20 12:26:28;;;;;;;6.18;1.67;;;;;;;;;;5038644;28;20182;-71
2022/10/20 12:28:56;;;;;;;4.13;2.05;;;;;;;;;;5031843;28;20579;-72
2022/10/20 12:31:22;;;;;;;3.53;1.85;;;;;;;;;;5059536;27;20039;-70
2022/10/20 12:33:50;;;;;;;7.30;1.90;;;;;;;;;;5115841;27;20029;-70
2022/10/20 12:36:15;;;;;;;6.15;2.70;;;;;;;;;;5121596;27;20019;-70
2022/10/20 12:38:41;;;;;;;5.13;2.27;;;;;;;;;;5120051;27;20042;-70
2022/10/20 12:41:08;;;;;;;9.02;3.05;;;;;;;;;;5124194;27;20473;-70
2022/10/20 12:43:46;;;;;;;8.68;2.97;;;;;;;;;;5101470;28;20072;-71
2022/10/20 12:46:16;;;;;;;10.07;3.23;;;;;;;;;;5105015;28;20023;-71
2022/10/20 12:48:43;;;;;;;5.43;2.78;;;;;;;;;;5117303;27;20023;-72
2022/10/20 12:51:17;;;;;;;5.43;2.28;;;;;;;;;;5116002;27;20072;-70
2022/10/20 12:53:49;;;;;;;5.88;2.03;;;;;;;;;;5108230;27;20031;-70
2022/10/20 12:56:19;;;;;;;15.20;3.28;;;;;;;14.94;nan;101466.94;5115507;27;20677;-73
2022/10/20 12:59:03;;;;;;;10.27;3.10;;;;;;;;;;5099700;27;20053;-71
2022/10/20 13:01:29;;;;;;;7.20;3.10;;;;;;;;;;5109422;27;20023;-70
2022/10/20 13:03:54;;;;;;;7.40;2.60;;;;;;;;;;5119862;27;20041;-69
2022/10/20 13:06:22;;;;;;;3.93;2.00;;;;;;;;;;5111334;27;20443;-69
2022/10/20 13:09:06;;;;;;;3.00;1.95;;;;;;;;;;5101672;27;20337;-70
2022/10/20 13:11:31;;;;;;;6.18;2.00;;;;;;;;;;5118489;27;20019;-70
2022/10/20 13:13:58;;;;;;;9.23;3.63;;;;;;;;;;5102562;27;20030;-71
2022/10/20 13:16:24;;;;;;;6.50;2.60;;;;;;;;;;5099188;27;20590;-71
2022/10/20 13:18:51;;;;;;;11.65;3.95;;;;;;;;;;5118799;27;20059;-71
2022/10/20 13:21:21;;;;;;;15.02;4.20;;;;;;;;;;5118589;27;20112;-72
2022/10/20 13:23:59;;;;;;;8.73;4.32;;;;;;;;;;5118422;27;20043;-72
2022/10/20 13:26:27;;;;;;;8.10;4.07;;;;;;;;;;5121759;27;20023;-71
2022/10/20 13:28:54;;;;;;;8.30;3.85;;;;;;;;;;5121172;27;20024;-71
2022/10/20 13:31:38;;;;;;;8.73;3.80;;;;;;;;;;5101225;27;20023;-71
2022/10/20 13:34:09;;;;;;;6.82;3.47;;;;;;;;;;5104601;27;20024;-72
2022/10/20 13:36:50;;;;;;;10.43;4.68;;;;;;;;;;5105012;27;20033;-70
2022/10/20 13:39:36;;;;;;;6.88;2.55;;;;;;;14.68;nan;101404.50;5105555;28;20515;-71
2022/10/20 13:42:07;;;;;;;3.88;2.33;;;;;;;;;;5106884;27;20083;-72
2022/10/20 13:44:51;;;;;;;5.00;1.88;;;;;;;;;;5101815;27;20035;-71
2022/10/20 13:47:42;;;;;;;9.57;2.50;;;;;;;;;;5120538;27;20467;-71
2022/10/20 13:50:07;;;;;;;4.78;1.92;;;;;;;;;;5080464;27;20095;-71
2022/10/20 13:52:36;;;;;;;4.93;2.03;;;;;;;;;;5115531;27;20106;-71
2022/10/20 13:55:03;;;;;;;15.45;2.67;;;;;;;;;;5102205;27;20019;-71
2022/10/20 13:57:30;;;;;;;3.30;2.20;;;;;;;;;;5123098;27;20034;-70
2022/10/20 13:59:57;;;;;;;8.07;2.53;;;;;;;;;;5112302;27;20031;-72
2022/10/20 14:02:24;;;;;;;4.47;2.30;;;;;;;;;;5101049;28;20023;-71
2022/10/20 14:05:00;;;;;;;7.78;3.60;;;;;;;;;;5099063;28;20068;-72
2022/10/20 14:07:33;;;;;;;9.13;3.30;;;;;;;;;;5105224;27;20023;-71
2022/10/20 14:09:59;;;;;;;12.65;5.28;;;;;;;;;;5099228;27;20027;-71
2022/10/20 14:12:24;;;;;;;9.03;3.83;;;;;;;;;;5099601;28;20122;-72
2022/10/20 14:14:50;;;;;;;19.65;7.57;;;;;;;;;;5112422;27;20275;-72
2022/10/20 14:17:19;;;;;;;12.00;3.38;;;;;;;;;;5114481;27;20054;-70
2022/10/20 14:19:45;;;;;;;6.25;2.90;;;;;;;;;;5104614;27;20023;-70
2022/10/20 14:22:21;;;;;;;9.23;2.63;;;;;;;;;;5103134;28;21332;-71
2022/10/20 14:24:49;;;;;;;7.15;2.50;;;;;;;;;;5098283;28;20810;-71
2022/10/20 14:27:19;;;;;;;4.50;2.15;;;;;;;;;;5101487;28;20044;-71
2022/10/20 14:29:45;;;;;;;5.65;2.22;;;;;;;;;;5100990;28;20027;-72
2022/10/20 14:32:30;;;;;;;22.95;6.45;;;;;;;;;;5097809;28;20031;-72
2022/10/20 14:35:00;;;;;;;10.05;3.88;;;;;;;;;;5118876;27;20042;-73
2022/10/20 14:37:36;;;;;;;24.27;9.10;;;;;;;;;;5106120;27;20064;-72
2022/10/20 14:40:04;;;;;;;49.65;16.75;;;;;;;;;;5099378;27;20383;-73
2022/10/20 14:42:31;;;;;;;15.50;6.90;;;;;;;;;;5117401;27;20540;-73